Hlavní strana
METAR-TAF:

METAR-TAF

Letiště :

Morristown, Tennessee, Spojené státy americké

zeměpisná šířka: 36-10-46N, zeměpisná délka: 083-22-32W, výška: 400 m

Aktuální stav počasí

Zpráva byla vytvořena před 26 minutami, v 23:35 UTC
Západní vítr 11 kt
Teplota 1°C
Vlhkost vzduchu 100%
Tlak 1008 hPa
Viditelnost: 2.8 km
kouřmo

METAR: KMOR 302335Z AUTO 27011KT 1 3/4SM BR 01/01 A2978 RMK A01

Čas: 18:01 (00:01 UTC)


TAF: chybějící

Stav a předpovědi počasí z více než 4 000 letišť (zprávy METAR a TAF).

Červené a žluté tečky na mapě představují dostupné meteorologické stanice.

Když kurzor umístíte na tečku, zobrazí se název stanice.

Pak kliknutím zobrazíte stav a předpověď počasí.

Chcete-li změnit mapu, kliknutím na zelené tlačítko se znaménkem +mapu přiblížíte, kliknutím na zelené tlačítko se znaménkem – mapu oddálíte a kliknutím na zelené šipky přejdete na sousední mapy.


METAR-TAF: